Time;durP1;ratioP1;P1;durP2;ratioP2;P2;SDS_P1;SDS_P2;PMS_P1;PMS_P2;Temp;Humidity;BMP_temperature;BMP_pressure;BME280_temperature;BME280_humidity;BME280_pressure;Samples;Min_cycle;Max_cycle;Signal;HPM_P1;HPM_P2
2022/01/26 00:07:34;;;;;;;18.30;13.70;;;;;;;3.01;82.36;101161.60;105154;1284;22641;-84
2022/01/26 00:10:01;;;;;;;20.60;12.90;;;;;;;3.04;82.41;101163.10;105151;1281;24127;-85
2022/01/26 00:12:29;;;;;;;24.60;14.40;;;;;;;3.04;82.32;101163.80;105987;1281;22682;-83
2022/01/26 00:14:56;;;;;;;23.10;14.50;;;;;;;3.03;82.25;101165.16;106754;1279;22496;-83
2022/01/26 00:17:23;;;;;;;17.00;11.90;;;;;;;2.99;82.09;101162.73;106280;1282;22671;-86
2022/01/26 00:23:07;;;;;;;19.00;12.30;;;;;;;2.89;82.05;101158.06;107936;1290;22546;-83
2022/01/26 00:38:59;;;;;;;22.60;14.20;;;;;;;2.87;82.36;101160.77;105913;1293;22584;-78
2022/01/26 00:41:35;;;;;;;13.10;8.60;;;;;;;2.82;82.13;101160.63;105802;1287;22980;-82
2022/01/26 00:44:06;;;;;;;15.50;11.90;;;;;;;2.77;82.35;101159.05;106249;1281;22572;-83
2022/01/26 00:46:36;;;;;;;17.10;10.60;;;;;;;2.79;82.34;101161.38;105919;1281;25305;-81
2022/01/26 00:49:04;;;;;;;17.50;11.40;;;;;;;2.80;82.16;101166.98;105001;1287;23213;-80
2022/01/26 00:51:32;;;;;;;20.90;12.50;;;;;;;2.76;82.30;101165.45;105411;1287;25281;-81
2022/01/26 00:54:06;;;;;;;22.90;14.20;;;;;;;2.75;82.18;101164.55;104877;1288;24244;-79
2022/01/26 00:56:33;;;;;;;15.10;11.70;;;;;;;2.73;82.18;101163.41;105276;1281;22680;-81
2022/01/26 00:59:01;;;;;;;18.10;13.30;;;;;;;2.72;82.31;101165.12;105537;1282;24239;-81
2022/01/26 01:01:29;;;;;;;17.50;12.20;;;;;;;2.72;82.39;101163.20;105472;1281;22701;-81
2022/01/26 01:03:56;;;;;;;18.40;13.70;;;;;;;2.74;82.39;101165.04;105535;1281;22817;-81
2022/01/26 01:06:28;;;;;;;19.00;13.20;;;;;;;2.77;82.44;101163.39;105734;1276;23647;-81
2022/01/26 01:08:57;;;;;;;20.10;12.70;;;;;;;2.81;82.46;101163.36;106104;1276;22546;-83
2022/01/26 01:11:26;;;;;;;19.70;13.10;;;;;;;2.80;82.13;101162.98;106458;1275;22829;-82
2022/01/26 01:13:55;;;;;;;18.30;12.20;;;;;;;2.81;82.20;101159.36;106307;1275;23485;-82
2022/01/26 01:16:23;;;;;;;18.00;12.40;;;;;;;2.83;82.25;101159.45;106419;1275;22728;-79
2022/01/26 01:31:47;;;;;;;17.90;13.10;;;;;;;2.96;81.91;101146.47;105437;1279;23339;-83
2022/01/26 01:34:17;;;;;;;20.00;12.40;;;;;;;2.95;81.67;101143.83;105309;1279;24295;-81
2022/01/26 01:36:49;;;;;;;20.40;12.20;;;;;;;2.88;81.46;101141.66;106276;1282;22633;-81
2022/01/26 01:39:20;;;;;;;19.00;12.10;;;;;;;2.83;81.50;101134.73;105808;1281;22600;-81
2022/01/26 01:41:51;;;;;;;18.40;13.10;;;;;;;2.81;81.71;101134.33;105655;1279;22631;-79
2022/01/26 01:44:18;;;;;;;19.30;12.70;;;;;;;2.82;81.92;101133.29;105681;1279;25257;-81
2022/01/26 01:46:46;;;;;;;17.60;11.70;;;;;;;2.83;81.79;101134.02;105460;1279;22692;-80
2022/01/26 01:49:15;;;;;;;18.60;12.60;;;;;;;2.85;81.91;101136.36;105769;1279;24223;-81
2022/01/26 01:51:51;;;;;;;18.00;12.80;;;;;;;2.88;81.75;101132.98;105677;1280;24756;-82
2022/01/26 01:54:19;;;;;;;17.80;12.10;;;;;;;2.86;81.58;101131.02;105592;1275;24285;-82
2022/01/26 01:56:54;;;;;;;18.80;14.10;;;;;;;2.84;81.69;101132.85;106055;1275;22571;-81
2022/01/26 02:00:18;;;;;;;18.60;13.10;;;;;;;2.85;81.74;101134.81;106096;1279;22609;-86
2022/01/26 02:03:27;;;;;;;20.30;12.30;;;;;;;2.91;81.90;101132.92;107099;1279;22616;-85
2022/01/26 02:06:16;;;;;;;19.30;12.70;;;;;;;2.95;81.60;101127.12;106163;1281;24267;-84
2022/01/26 02:09:27;;;;;;;19.80;13.10;;;;;;;2.96;81.46;101126.45;105791;1281;22869;-83
2022/01/26 02:12:41;;;;;;;24.10;13.90;;;;;;;2.93;81.36;101128.48;106323;1281;22705;-85
2022/01/26 02:20:24;;;;;;;23.40;14.40;;;;;;;2.85;81.38;101124.01;105647;1282;24289;-84
2022/01/26 02:56:26;;;;;;;22.10;14.50;;;;;;;2.80;81.38;101118.08;104968;1282;22939;-81
2022/01/26 03:04:50;;;;;;;25.10;13.30;;;;;;;2.77;81.31;101116.77;105377;1284;25295;-88
2022/01/26 03:07:40;;;;;;;19.50;12.80;;;;;;;2.73;81.19;101112.47;105473;1284;22622;-82
2022/01/26 03:10:21;;;;;;;20.10;13.10;;;;;;;2.74;81.29;101113.52;105285;1284;24365;-79
2022/01/26 03:15:28;;;;;;;18.30;12.90;;;;;;;2.66;81.36;101118.15;105667;1275;24234;-77
2022/01/26 03:20:23;;;;;;;23.20;13.80;;;;;;;2.65;81.23;101113.93;105990;1275;25408;-82
2022/01/26 03:28:26;;;;;;;22.40;13.70;;;;;;;2.60;81.61;101122.98;106308;1278;22564;-80
2022/01/26 03:33:53;;;;;;;20.70;14.00;;;;;;;2.55;81.51;101112.89;105676;1277;24239;-82
2022/01/26 03:36:45;;;;;;;19.00;11.70;;;;;;;2.58;81.59;101106.59;106776;1277;22538;-81
2022/01/26 03:39:27;;;;;;;24.00;13.70;;;;;;;2.57;81.46;101106.54;106148;1280;22614;-82
2022/01/26 03:42:05;;;;;;;19.90;13.50;;;;;;;2.55;81.57;101105.56;106326;1280;22551;-80
2022/01/26 03:44:33;;;;;;;19.10;11.00;;;;;;;2.56;81.60;101104.23;105491;1280;24541;-81
2022/01/26 03:47:01;;;;;;;22.40;13.60;;;;;;;2.55;81.57;101103.16;105665;1279;22628;-83
2022/01/26 03:49:28;;;;;;;17.40;10.70;;;;;;;2.55;81.47;101104.02;105593;1279;26526;-80
2022/01/26 03:51:55;;;;;;;20.30;13.10;;;;;;;2.53;81.50;101104.80;105611;1278;22556;-79
2022/01/26 03:54:23;;;;;;;18.40;11.50;;;;;;;2.55;81.69;101107.67;105509;1284;22923;-85
2022/01/26 04:01:47;;;;;;;;;;;;;;;;;;;;;
2022/01/26 04:04:51;;;;;;;17.30;12.10;;;;;;;2.71;81.64;101118.48;107120;1293;22674;-84
2022/01/26 04:07:18;;;;;;;16.90;12.80;;;;;;;2.72;81.40;101113.83;104286;1291;22891;-83
2022/01/26 04:09:52;;;;;;;19.30;12.50;;;;;;;2.71;81.30;101112.91;104350;1290;25379;-82
2022/01/26 04:12:19;;;;;;;19.20;13.30;;;;;;;2.72;81.34;101112.08;104349;1289;25401;-81
2022/01/26 04:14:53;;;;;;;21.10;13.60;;;;;;;2.72;81.15;101112.09;104665;1288;24241;-78
2022/01/26 04:17:19;;;;;;;22.90;14.00;;;;;;;2.67;80.97;101114.17;104474;1288;24006;-78
2022/01/26 04:19:54;;;;;;;19.50;12.60;;;;;;;2.67;81.19;101113.11;104588;1287;25338;-77
2022/01/26 04:22:28;;;;;;;17.60;12.60;;;;;;;2.62;81.13;101113.14;104363;1287;23983;-79
2022/01/26 04:24:56;;;;;;;20.00;13.20;;;;;;;2.61;81.30;101108.92;104103;1294;22650;-78
2022/01/26 04:27:33;;;;;;;17.60;11.60;;;;;;;2.57;81.18;101108.09;104358;1294;22735;-80
2022/01/26 04:30:01;;;;;;;20.60;13.40;;;;;;;2.53;81.11;101108.45;105041;1291;22735;-82
2022/01/26 04:32:28;;;;;;;15.40;9.90;;;;;;;2.50;81.19;101106.28;104983;1291;24309;-77
2022/01/26 04:35:01;;;;;;;18.60;11.30;;;;;;;2.47;81.15;101105.14;104836;1290;26886;-81
2022/01/26 04:37:50;;;;;;;20.60;13.20;;;;;;;2.48;81.42;101102.40;104609;1287;25479;-79
2022/01/26 04:40:18;;;;;;;18.50;12.30;;;;;;;2.50;81.42;101105.23;104933;1288;23958;-78
2022/01/26 04:42:55;;;;;;;19.30;11.40;;;;;;;2.50;81.48;101105.39;105333;1281;24235;-78
2022/01/26 04:46:05;;;;;;;21.30;12.70;;;;;;;2.51;81.22;101101.79;105960;1281;22541;-84
2022/01/26 04:50:20;;;;;;;;;;;;;;;;;;;;;
2022/01/26 04:53:12;;;;;;;;;;;;;;;2.42;80.98;101091.23;105456;1287;23967;-78
2022/01/26 04:55:39;;;;;;;12.70;9.60;;;;;;;2.42;81.17;101093.66;105369;1279;24010;-80
2022/01/26 04:58:06;;;;;;;18.80;9.90;;;;;;;2.42;81.13;101094.02;105633;1279;22548;-79
2022/01/26 05:00:34;;;;;;;16.40;8.90;;;;;;;2.41;81.14;101092.59;105632;1280;25523;-81
2022/01/26 05:03:01;;;;;;;21.30;10.20;;;;;;;2.44;81.26;101087.66;105691;1280;24282;-80
2022/01/26 05:05:28;;;;;;;14.30;8.60;;;;;;;2.47;81.27;101088.08;105794;1279;22548;-79
2022/01/26 05:07:55;;;;;;;12.80;8.70;;;;;;;2.46;81.16;101083.71;106619;1276;24284;-80
2022/01/26 05:10:22;;;;;;;13.80;8.50;;;;;;;2.43;81.04;101083.25;106067;1276;24134;-80
2022/01/26 05:12:49;;;;;;;16.00;8.30;;;;;;;2.42;81.13;101078.00;106057;1275;22548;-82
2022/01/26 05:15:21;;;;;;;12.00;7.60;;;;;;;2.40;80.87;101075.85;106451;1279;24395;-83
2022/01/26 05:17:48;;;;;;;17.50;9.80;;;;;;;2.38;80.97;101078.38;106559;1279;22981;-84
2022/01/26 05:20:17;;;;;;;13.80;8.10;;;;;;;2.35;80.95;101074.96;106376;1279;24266;-84
2022/01/26 05:22:44;;;;;;;13.50;8.00;;;;;;;2.33;80.89;101075.94;107287;1279;22588;-86
2022/01/26 05:25:13;;;;;;;14.00;7.00;;;;;;;2.29;80.83;101071.80;107344;1279;22541;-83
2022/01/26 05:27:42;;;;;;;12.10;7.70;;;;;;;2.23;80.96;101069.02;106874;1279;22571;-84
2022/01/26 05:30:10;;;;;;;12.50;6.70;;;;;;;2.24;81.03;101069.20;105808;1285;22573;-84
2022/01/26 05:32:37;;;;;;;11.40;7.30;;;;;;;2.24;81.08;101068.70;105272;1281;24846;-84
2022/01/26 05:35:05;;;;;;;9.90;7.30;;;;;;;2.26;80.98;101065.27;105812;1281;25383;-83
2022/01/26 05:37:32;;;;;;;11.20;7.10;;;;;;;2.22;80.74;101066.34;105885;1280;24203;-84
2022/01/26 05:40:02;;;;;;;12.30;6.90;;;;;;;2.18;80.85;101073.36;105916;1287;22707;-85
2022/01/26 05:42:31;;;;;;;13.30;6.80;;;;;;;2.16;80.87;101071.19;105136;1291;22737;-85
2022/01/26 05:45:05;;;;;;;9.40;5.60;;;;;;;2.19;81.01;101075.48;105425;1290;22584;-84
2022/01/26 05:47:34;;;;;;;11.90;6.60;;;;;;;2.17;80.96;101072.62;105196;1290;22886;-83
2022/01/26 05:50:02;;;;;;;11.40;7.00;;;;;;;2.18;80.96;101072.83;105352;1290;22653;-72
2022/01/26 05:52:29;;;;;;;10.90;6.20;;;;;;;2.24;80.96;101077.90;104865;1290;24246;-76
2022/01/26 05:54:56;;;;;;;12.50;7.60;;;;;;;2.23;80.70;101077.85;104700;1285;24246;-79
2022/01/26 05:57:24;;;;;;;10.70;6.90;;;;;;;2.23;80.96;101077.70;105899;1279;25300;-80
2022/01/26 05:59:55;;;;;;;13.70;8.20;;;;;;;2.20;80.82;101078.81;106212;1277;22571;-83
2022/01/26 06:02:25;;;;;;;13.80;8.60;;;;;;;2.19;80.84;101073.05;106660;1274;22576;-84
2022/01/26 06:04:54;;;;;;;19.70;8.70;;;;;;;2.21;80.96;101070.85;106788;1273;22554;-83
2022/01/26 06:07:42;;;;;;;16.80;9.10;;;;;;;2.20;80.92;101065.25;106852;1276;22640;-83
2022/01/26 06:10:33;;;;;;;14.60;9.80;;;;;;;2.20;80.97;101064.56;106584;1273;22563;-83
2022/01/26 06:13:21;;;;;;;18.40;9.70;;;;;;;2.18;80.99;101068.30;106095;1274;26533;-88
2022/01/26 06:15:49;;;;;;;19.20;10.80;;;;;;;2.16;80.98;101065.77;106379;1277;24149;-82
2022/01/26 06:18:16;;;;;;;14.30;7.50;;;;;;;2.15;80.85;101065.25;106311;1278;22642;-79
2022/01/26 06:21:07;;;;;;;19.10;9.60;;;;;;;2.09;80.87;101060.34;105843;1283;25392;-87
2022/01/26 06:24:16;;;;;;;13.30;8.30;;;;;;;2.04;80.90;101059.11;106085;1284;25451;-89
2022/01/26 06:28:08;;;;;;;14.10;9.90;;;;;;;2.01;81.13;101056.55;107257;1283;22582;-86
2022/01/26 06:31:41;;;;;;;20.60;9.90;;;;;;;2.03;81.06;101054.02;107993;1282;23619;-86
2022/01/26 06:34:39;;;;;;;15.30;9.40;;;;;;;2.10;81.24;101057.42;107928;1282;22593;-83
2022/01/26 06:37:06;;;;;;;17.00;11.00;;;;;;;2.12;81.09;101056.97;107947;1279;22668;-80
2022/01/26 06:39:34;;;;;;;12.00;9.00;;;;;;;2.12;80.91;101057.11;108903;1274;22820;-83
2022/01/26 06:42:03;;;;;;;17.00;9.80;;;;;;;2.11;80.93;101057.27;109263;1274;22496;-84
2022/01/26 06:44:36;;;;;;;15.80;9.60;;;;;;;2.10;80.83;101052.89;109403;1274;23124;-83
2022/01/26 06:47:20;;;;;;;15.80;10.20;;;;;;;2.12;80.86;101059.22;109485;1274;22596;-84
2022/01/26 06:49:51;;;;;;;18.00;9.70;;;;;;;2.15;80.87;101060.71;108865;1279;22573;-84
2022/01/26 06:52:21;;;;;;;16.90;10.40;;;;;;;2.12;80.74;101056.79;108642;1279;22594;-84
2022/01/26 06:54:48;;;;;;;18.50;11.00;;;;;;;2.15;80.75;101061.56;107281;1281;22608;-82
2022/01/26 06:57:15;;;;;;;17.30;11.40;;;;;;;2.14;80.85;101058.77;107983;1279;25864;-83
2022/01/26 06:59:42;;;;;;;15.60;9.60;;;;;;;2.14;80.90;101060.52;106163;1280;24267;-84
2022/01/26 07:02:09;;;;;;;18.60;9.90;;;;;;;2.10;80.65;101053.58;105849;1279;26707;-81
2022/01/26 07:04:39;;;;;;;12.40;8.70;;;;;;;2.07;80.78;101056.08;106049;1279;22648;-82
2022/01/26 07:07:06;;;;;;;14.80;8.40;;;;;;;2.04;80.88;101055.64;105867;1275;23157;-81
2022/01/26 07:09:34;;;;;;;12.40;8.30;;;;;;;2.07;81.05;101058.33;106143;1276;23957;-84
2022/01/26 07:12:02;;;;;;;12.60;7.80;;;;;;;2.03;80.83;101056.80;105902;1278;24419;-84
2022/01/26 07:21:22;;;;;;;16.00;11.30;;;;;;;2.04;81.18;101059.95;105799;1284;24349;-82
2022/01/26 07:22:49;;;;;;;18.20;11.00;;;;;;;2.07;81.20;101049.11;106360;1282;23904;-82
2022/01/26 07:25:16;;;;;;;17.20;10.30;;;;;;;2.08;81.22;101048.65;106464;1287;22577;-82
2022/01/26 07:27:45;;;;;;;15.80;10.90;;;;;;;2.09;81.17;101042.42;106503;1287;23952;-83
2022/01/26 07:30:13;;;;;;;17.70;10.70;;;;;;;2.15;81.30;101042.96;106257;1282;23856;-84
2022/01/26 07:32:40;;;;;;;13.50;9.40;;;;;;;2.24;81.27;101045.56;107025;1278;23105;-82
2022/01/26 07:35:08;;;;;;;16.40;11.20;;;;;;;2.27;80.89;101045.48;107023;1284;22545;-83
2022/01/26 07:37:38;;;;;;;19.40;9.80;;;;;;;2.26;80.76;101045.11;106765;1284;25382;-82
2022/01/26 07:40:09;;;;;;;17.00;9.20;;;;;;;2.26;80.72;101048.05;105606;1284;22494;-83
2022/01/26 07:42:37;;;;;;;16.70;9.70;;;;;;;2.23;80.64;101053.19;105539;1284;22525;-85
2022/01/26 07:45:06;;;;;;;15.00;8.50;;;;;;;2.21;80.65;101056.08;105653;1281;22807;-84
2022/01/26 07:47:33;;;;;;;14.80;8.70;;;;;;;2.17;80.63;101061.30;105708;1282;25390;-82
2022/01/26 07:50:05;;;;;;;16.60;9.60;;;;;;;2.10;80.76;101058.80;105606;1281;22529;-85
2022/01/26 07:52:36;;;;;;;15.00;8.70;;;;;;;2.13;80.96;101057.87;105586;1279;24807;-84
2022/01/26 07:55:05;;;;;;;15.80;10.10;;;;;;;2.14;81.05;101055.46;106213;1279;22553;-84
2022/01/26 07:57:33;;;;;;;12.40;8.90;;;;;;;2.24;81.20;101056.70;107121;1279;24677;-84
2022/01/26 08:00:03;;;;;;;16.40;8.60;;;;;;;2.34;81.11;101057.88;107898;1279;24004;-84
2022/01/26 08:02:43;;;;;;;15.50;10.00;;;;;;;2.41;80.83;101053.98;107714;1277;25406;-84
2022/01/26 08:05:14;;;;;;;14.70;8.90;;;;;;;2.45;80.67;101053.06;107504;1279;22569;-82
2022/01/26 08:07:41;;;;;;;15.40;9.50;;;;;;;2.42;80.36;101049.86;107734;1279;22566;-82
2022/01/26 08:10:10;;;;;;;11.50;7.80;;;;;;;2.44;80.33;101043.49;107470;1282;24017;-82
2022/01/26 08:12:39;;;;;;;13.90;9.10;;;;;;;2.45;80.18;101043.18;106524;1282;25986;-85
2022/01/26 08:15:26;;;;;;;10.20;6.50;;;;;;;2.55;80.45;101047.14;105690;1282;22576;-84
2022/01/26 08:17:55;;;;;;;14.90;8.80;;;;;;;2.58;79.94;101049.88;105654;1282;24229;-87
2022/01/26 08:20:23;;;;;;;14.00;8.70;;;;;;;2.60;79.88;101047.83;105872;1279;22580;-82
2022/01/26 08:22:53;;;;;;;17.50;8.60;;;;;;;2.63;79.76;101049.15;105756;1279;22493;-83
2022/01/26 08:25:21;;;;;;;13.10;8.10;;;;;;;2.62;79.45;101050.02;105247;1287;25248;-86
2022/01/26 08:27:55;;;;;;;13.40;7.60;;;;;;;2.58;79.26;101049.69;105088;1281;22616;-85
2022/01/26 08:30:23;;;;;;;11.20;7.60;;;;;;;2.57;79.46;101049.64;105503;1281;25227;-86
2022/01/26 08:32:51;;;;;;;9.60;7.30;;;;;;;2.58;79.31;101053.36;105539;1282;25337;-85
2022/01/26 08:35:17;;;;;;;11.60;7.80;;;;;;;2.63;79.52;101051.23;105575;1284;22549;-84
2022/01/26 08:37:46;;;;;;;13.40;7.30;;;;;;;2.64;79.22;101055.83;105802;1281;22521;-84
2022/01/26 08:40:15;;;;;;;9.70;7.30;;;;;;;2.62;79.12;101063.55;106465;1281;25343;-83
2022/01/26 08:42:42;;;;;;;15.30;8.00;;;;;;;2.63;79.07;101063.25;106309;1275;614335;-82
2022/01/26 08:45:09;;;;;;;13.50;7.70;;;;;;;2.62;78.80;101065.48;107936;1274;25519;-83
2022/01/26 08:47:36;;;;;;;10.20;7.20;;;;;;;2.59;78.71;101064.17;107236;1274;22668;-83
2022/01/26 08:50:05;;;;;;;14.60;9.00;;;;;;;2.62;78.97;101053.83;106975;1274;22554;-82
2022/01/26 08:52:33;;;;;;;11.80;8.20;;;;;;;2.69;79.05;101052.30;106549;1274;25438;-83
2022/01/26 08:55:01;;;;;;;18.70;8.90;;;;;;;2.78;79.06;101050.70;106347;1274;22559;-82
2022/01/26 08:57:28;;;;;;;8.70;5.60;;;;;;;2.83;78.81;101046.52;105987;1279;25238;-83
2022/01/26 08:59:56;;;;;;;10.00;5.70;;;;;;;2.87;78.65;101042.64;105680;1281;25268;-83
2022/01/26 09:02:25;;;;;;;14.80;9.30;;;;;;;2.86;78.61;101042.97;105803;1282;22639;-82
2022/01/26 09:04:53;;;;;;;13.00;8.70;;;;;;;2.93;78.45;101043.90;105943;1279;25371;-84
2022/01/26 09:07:20;;;;;;;14.20;9.70;;;;;;;2.94;78.33;101046.71;105873;1279;24888;-84
2022/01/26 09:09:48;;;;;;;14.10;9.50;;;;;;;2.92;78.32;101037.41;105710;1282;22575;-82
2022/01/26 09:12:19;;;;;;;16.90;9.30;;;;;;;3.01;78.29;101044.67;105980;1279;25658;-82
2022/01/26 09:14:47;;;;;;;13.20;8.20;;;;;;;3.02;78.09;101042.61;105838;1280;25458;-85
2022/01/26 09:17:15;;;;;;;14.30;9.50;;;;;;;2.97;77.88;101042.45;106295;1273;25263;-84
2022/01/26 09:19:44;;;;;;;14.30;8.10;;;;;;;2.96;77.76;101038.59;106389;1274;22544;-85
2022/01/26 09:22:14;;;;;;;15.10;9.30;;;;;;;2.95;77.66;101040.48;106378;1273;23071;-81
2022/01/26 09:24:44;;;;;;;13.90;9.00;;;;;;;2.91;77.70;101040.52;106238;1274;25319;-83
2022/01/26 09:27:14;;;;;;;14.30;8.80;;;;;;;2.92;77.70;101039.50;106381;1273;24455;-83
2022/01/26 09:29:44;;;;;;;13.60;7.70;;;;;;;2.89;77.55;101043.42;106182;1274;25255;-84
2022/01/26 09:32:14;;;;;;;12.50;8.40;;;;;;;2.85;77.58;101044.14;106226;1273;25368;-82
2022/01/26 09:34:43;;;;;;;13.60;7.90;;;;;;;2.81;77.17;101043.67;106831;1274;23825;-85
2022/01/26 09:37:14;;;;;;;14.50;9.40;;;;;;;2.78;77.36;101043.91;106667;1273;25459;-82
2022/01/26 09:39:43;;;;;;;15.30;9.50;;;;;;;2.77;77.44;101043.35;106060;1279;22668;-81
2022/01/26 09:42:11;;;;;;;13.70;9.00;;;;;;;2.81;77.72;101044.73;105672;1283;22615;-84
2022/01/26 09:44:39;;;;;;;16.60;9.40;;;;;;;2.90;77.81;101039.27;105485;1283;24261;-85
2022/01/26 09:47:08;;;;;;;16.70;9.80;;;;;;;2.90;77.31;101040.13;105523;1282;25271;-85
2022/01/26 09:49:37;;;;;;;13.80;8.30;;;;;;;2.90;77.50;101043.45;105529;1282;25256;-83
2022/01/26 09:52:22;;;;;;;17.40;9.20;;;;;;;2.91;77.13;101036.70;105257;1283;23984;-83
2022/01/26 09:55:06;;;;;;;14.80;9.30;;;;;;;2.92;77.37;101037.77;105299;1283;22547;-81
2022/01/26 09:57:38;;;;;;;13.40;7.80;;;;;;;3.02;77.20;101037.92;105253;1280;24262;-83
2022/01/26 10:00:06;;;;;;;14.30;8.70;;;;;;;3.06;76.90;101038.73;105781;1274;22552;-82
2022/01/26 10:02:43;;;;;;;12.10;8.70;;;;;;;3.04;76.70;101035.73;106030;1274;22605;-82
2022/01/26 10:05:17;;;;;;;16.40;10.00;;;;;;;3.08;76.81;101034.79;106491;1274;25964;-87
2022/01/26 10:19:08;;;;;;;11.80;8.40;;;;;;;3.37;75.86;101010.60;106298;1280;22566;-83
2022/01/26 10:21:46;;;;;;;13.90;8.80;;;;;;;3.44;75.98;101007.70;105849;1280;25594;-85
2022/01/26 10:24:13;;;;;;;10.50;6.40;;;;;;;3.56;75.88;101001.61;105907;1274;24327;-84
2022/01/26 10:26:49;;;;;;;10.90;7.10;;;;;;;3.56;75.04;101000.55;107157;1273;25473;-83
2022/01/26 10:29:17;;;;;;;12.70;7.60;;;;;;;3.56;75.11;100998.64;107049;1273;22557;-84
2022/01/26 10:31:45;;;;;;;9.20;7.30;;;;;;;3.65;74.72;100994.72;106708;1273;22723;-83
2022/01/26 10:34:12;;;;;;;16.50;7.90;;;;;;;3.63;74.70;100993.61;106735;1274;23213;-84
2022/01/26 10:36:46;;;;;;;11.30;7.60;;;;;;;3.67;74.46;100993.22;106949;1274;24312;-84
2022/01/26 10:39:26;;;;;;;11.30;6.50;;;;;;;3.68;74.38;100985.93;106363;1274;22477;-83
2022/01/26 10:41:59;;;;;;;11.90;7.30;;;;;;;3.65;74.10;100982.00;106621;1274;25383;-82
2022/01/26 10:44:34;;;;;;;7.00;5.00;;;;;;;3.66;74.26;100985.86;106538;1279;25372;-84
2022/01/26 10:47:32;;;;;;;12.90;7.90;;;;;;;3.60;73.65;100979.59;106276;1279;22597;-85
2022/01/26 10:50:29;;;;;;;10.80;6.60;;;;;;;3.61;74.13;100976.30;106362;1280;25381;-82
2022/01/26 10:52:55;;;;;;;10.60;7.00;;;;;;;3.69;74.07;100970.09;106279;1281;22584;-82
2022/01/26 10:55:23;;;;;;;14.00;9.90;;;;;;;3.76;74.13;100964.36;106864;1279;24366;-82
2022/01/26 10:57:51;;;;;;;15.10;8.70;;;;;;;3.80;74.14;100961.87;106848;1279;22655;-83
2022/01/26 11:00:20;;;;;;;19.40;10.70;;;;;;;3.75;73.57;100957.55;106742;1279;25377;-83
2022/01/26 11:02:50;;;;;;;15.30;9.00;;;;;;;3.61;73.67;100954.02;105963;1279;25638;-84
2022/01/26 11:05:19;;;;;;;17.90;10.10;;;;;;;3.55;73.94;100955.41;106130;1279;23313;-83
2022/01/26 11:07:47;;;;;;;12.90;7.40;;;;;;;3.53;74.11;100949.11;106313;1279;23051;-84
2022/01/26 11:10:16;;;;;;;19.20;10.00;;;;;;;3.49;73.80;100950.20;107464;1283;22627;-85
2022/01/26 11:12:44;;;;;;;15.30;9.30;;;;;;;3.39;73.88;100949.58;105580;1284;25470;-83
2022/01/26 11:15:14;;;;;;;14.30;9.60;;;;;;;3.29;74.29;100946.12;105614;1284;22603;-83
2022/01/26 11:17:46;;;;;;;19.70;11.20;;;;;;;3.21;74.75;100942.61;105298;1287;25389;-83
2022/01/26 11:20:20;;;;;;;15.10;9.60;;;;;;;3.19;74.85;100946.02;104903;1291;22569;-84
2022/01/26 11:23:08;;;;;;;14.90;9.50;;;;;;;3.11;74.99;100942.11;105159;1290;25267;-83
2022/01/26 11:25:44;;;;;;;15.30;8.70;;;;;;;3.07;75.34;100944.43;106314;1290;23153;-82
2022/01/26 11:28:15;;;;;;;17.30;8.70;;;;;;;3.04;75.58;100943.14;106422;1287;22777;-83
2022/01/26 11:30:49;;;;;;;13.20;7.80;;;;;;;3.02;75.64;100943.94;106401;1287;22862;-83
2022/01/26 11:33:19;;;;;;;12.00;7.80;;;;;;;3.01;75.93;100942.34;106353;1287;25518;-83
2022/01/26 11:35:49;;;;;;;13.10;8.10;;;;;;;2.92;75.66;100946.59;106693;1287;22599;-83
2022/01/26 11:46:58;;;;;;;14.80;9.40;;;;;;;2.68;77.19;100933.67;106340;1276;22993;-84
2022/01/26 11:49:44;;;;;;;17.50;9.40;;;;;;;2.72;77.53;100933.96;106023;1280;25312;-84
2022/01/26 11:52:23;;;;;;;18.40;10.10;;;;;;;2.72;77.49;100931.20;105941;1278;23144;-82
2022/01/26 11:54:54;;;;;;;13.40;10.60;;;;;;;2.75;77.70;100928.31;105507;1279;22672;-82
2022/01/26 11:57:56;;;;;;;18.80;11.80;;;;;;;2.69;77.63;100917.88;105623;1280;22659;-81
2022/01/26 12:00:44;;;;;;;18.30;12.00;;;;;;;2.51;77.67;100916.27;105399;1283;24347;-84
2022/01/26 12:03:31;;;;;;;20.30;12.50;;;;;;;2.40;77.97;100918.51;105196;1282;25507;-82
2022/01/26 12:06:02;;;;;;;22.30;14.10;;;;;;;2.36;78.45;100914.56;105491;1282;22699;-84
2022/01/26 12:08:39;;;;;;;19.60;12.80;;;;;;;2.38;78.64;100917.94;105663;1282;24239;-87
2022/01/26 12:11:10;;;;;;;19.90;13.50;;;;;;;2.30;78.76;100919.23;105939;1279;22544;-84
2022/01/26 12:13:38;;;;;;;18.30;11.40;;;;;;;2.29;78.99;100911.02;105986;1278;22550;-85
2022/01/26 12:16:19;;;;;;;20.40;13.90;;;;;;;2.17;79.13;100905.59;105762;1281;24396;-83
2022/01/26 12:38:17;;;;;;;16.80;12.70;;;;;;;2.60;80.61;100893.44;107485;1274;22604;-83
2022/01/26 12:43:56;;;;;;;14.00;10.80;;;;;;;2.59;79.86;100879.66;108116;1274;22814;-84
2022/01/26 12:46:27;;;;;;;12.20;9.90;;;;;;;2.56;80.10;100871.58;107865;1281;23335;-84
2022/01/26 12:48:59;;;;;;;14.60;10.10;;;;;;;2.45;80.10;100864.44;107991;1283;22621;-84
2022/01/26 12:51:31;;;;;;;14.50;11.10;;;;;;;2.35;80.51;100866.23;107814;1284;22619;-83
2022/01/26 12:54:02;;;;;;;16.10;11.00;;;;;;;2.39;81.03;100864.05;107989;1285;22592;-84
2022/01/26 12:56:32;;;;;;;12.00;9.60;;;;;;;2.43;80.68;100865.95;108537;1284;25343;-84
2022/01/26 12:59:04;;;;;;;12.40;9.80;;;;;;;2.42;80.57;100868.52;108111;1284;22604;-83
2022/01/26 13:01:32;;;;;;;12.10;9.60;;;;;;;2.40;80.77;100867.59;107695;1284;22759;-84
2022/01/26 13:04:04;;;;;;;16.00;11.20;;;;;;;2.34;80.98;100862.67;107496;1276;23888;-84
2022/01/26 13:06:40;;;;;;;14.80;10.90;;;;;;;2.33;81.13;100866.50;108108;1274;24311;-83
2022/01/26 13:09:18;;;;;;;;;;;;;;;2.37;81.55;100865.59;106750;1279;22517;-84
2022/01/26 13:11:48;;;;;;;14.00;11.10;;;;;;;2.43;81.47;100864.04;106366;1279;22874;-86
2022/01/26 13:14:31;;;;;;;14.30;11.00;;;;;;;2.54;81.70;100856.72;106047;1279;23931;-85
2022/01/26 13:32:07;;;;;;;12.90;10.30;;;;;;;2.75;81.63;100845.88;105658;1288;22744;-85
2022/01/26 13:35:04;;;;;;;12.90;10.40;;;;;;;2.73;81.44;100841.64;105732;1284;23196;-84
2022/01/26 13:38:06;;;;;;;12.80;9.10;;;;;;;2.65;80.98;100838.11;105971;1284;25346;-84
2022/01/26 13:44:01;;;;;;;11.90;10.30;;;;;;;2.63;81.91;100831.62;105997;1284;23995;-83
2022/01/26 13:49:08;;;;;;;11.60;8.50;;;;;;;2.66;81.41;100824.06;107434;1284;24025;-83
2022/01/26 14:01:44;;;;;;;10.70;8.80;;;;;;;2.75;81.51;100824.13;107518;1287;22576;-85
2022/01/26 14:04:15;;;;;;;12.00;9.10;;;;;;;2.77;81.66;100819.34;107155;1284;22570;-85
2022/01/26 14:06:45;;;;;;;8.10;7.00;;;;;;;2.84;81.63;100818.48;106967;1279;25008;-86
2022/01/26 14:09:13;;;;;;;8.50;5.90;;;;;;;2.85;81.49;100817.48;107186;1279;25663;-84
2022/01/26 14:11:48;;;;;;;10.30;8.60;;;;;;;2.84;81.51;100817.43;106594;1280;22621;-86
2022/01/26 14:14:25;;;;;;;14.20;9.70;;;;;;;2.86;81.71;100815.77;105943;1282;22548;-86
2022/01/26 14:17:16;;;;;;;12.10;8.70;;;;;;;2.88;81.77;100814.79;106790;1276;22610;-83
2022/01/26 14:26:22;;;;;;;9.70;8.20;;;;;;;2.98;81.88;100804.95;106763;1277;22583;-84
2022/01/26 14:28:52;;;;;;;9.80;8.10;;;;;;;2.96;81.93;100808.58;106419;1277;22646;-86
2022/01/26 14:31:48;;;;;;;;;;;;;;;;;;;;;
2022/01/26 14:51:30;;;;;;;;;;;;;;;;;;;;;
2022/01/26 15:00:00;;;;;;;11.90;9.50;;;;;;;3.02;82.41;100776.53;106315;1277;22574;-85
2022/01/26 15:30:03;;;;;;;15.00;12.10;;;;;;;3.14;83.45;100777.58;107932;1281;23790;-85
2022/01/26 15:41:11;;;;;;;14.90;10.00;;;;;;;3.34;83.52;100773.58;108427;1274;22642;-87
2022/01/26 15:57:50;;;;;;;17.60;12.10;;;;;;;3.68;83.49;100766.44;106872;1282;24442;-82
2022/01/26 16:17:25;;;;;;;17.30;13.30;;;;;;;3.68;83.19;100755.65;107645;1275;22934;-80
2022/01/26 18:51:35;;;;;;;8.20;7.30;;;;;;;2.77;83.09;100702.95;107201;1274;22480;-83
2022/01/26 18:54:04;;;;;;;10.50;8.00;;;;;;;2.80;83.06;100709.48;106581;1281;24244;-81
2022/01/26 19:00:51;;;;;;;11.40;8.90;;;;;;;2.70;83.26;100710.61;106473;1279;22697;-83